Latest Weather Observations for Nambour

IDQ60901

Issued at 11:45 pm EST Friday 19 September 2014 (issued every 10 minutes, with the page automatically refreshed every 10 minutes)

About weather observations | Map of Brisbane area stations | Latest observations for Brisbane area | Other Formats
Station Details ID: 040988 Name: NAMBOUR DAFF - HILLSIDE Lat: -26.64 Lon: 152.94 Height: 53.24 m
Data from the previous 72 hours. | See also: Recent months at Nambour
Date/Time
EST
Tmp

°C
App
Tmp
°C
Dew
Point
°C
Rel
Hum
%
Delta-T

°C
Wind Press
QNH
hPa
Press
MSL
hPa
Rain
since
9 am
mm
Dir
 
Spd
km/h
Gust
km/h
Spd
kts
Gust
kts
19/11:30pm 14.3 14.7 11.3 82 1.6 WSW 0 0 0 0 1019.8 1019.7 0.0
19/11:00pm 14.2 14.7 11.5 84 1.4 CALM 0 0 0 0 1019.9 1019.8 0.0
19/10:30pm 14.1 14.3 10.7 80 1.8 WSW 0 0 0 0 1019.8 1019.7 0.0
19/10:00pm 14.3 14.5 10.7 79 1.9 CALM 0 0 0 0 1019.7 1019.6 0.0
19/09:30pm 14.6 14.9 11.0 79 1.9 CALM 0 0 0 0 1019.7 1019.6 0.0
19/09:00pm 15.2 15.5 11.0 76 2.2 CALM 0 0 0 0 1019.6 1019.5 0.0
19/08:30pm 15.2 15.6 11.2 77 2.1 CALM 0 0 0 0 1019.7 1019.6 0.0
19/08:00pm 15.7 16.1 11.1 74 2.5 WSW 0 0 0 0 1019.6 1019.5 0.0
19/07:30pm 16.4 16.9 11.6 73 2.6 CALM 0 0 0 0 1019.4 1019.3 0.0
19/07:00pm 17.0 17.0 11.1 68 3.2 W 2 4 1 2 1019.1 1019.0 0.0
19/06:30pm 18.5 18.9 11.1 62 4.0 CALM 0 0 0 0 1018.6 1018.5 0.0
19/06:00pm 19.3 19.2 10.8 58 4.6 ENE 2 4 1 2 1018.2 1018.1 0.0
19/05:30pm 20.1 19.0 10.8 55 5.1 E 7 13 4 7 1017.8 1017.7 0.0
19/05:00pm 20.8 18.5 10.6 52 5.6 NE 13 19 7 10 1017.1 1017.0 0.0
19/04:30pm 21.4 19.7 11.1 52 5.7 ENE 11 22 6 12 1016.7 1016.6 0.0
19/04:00pm 21.4 19.0 11.4 53 5.6 NE 15 28 8 15 1016.6 1016.5 0.0
19/03:30pm 22.6 20.9 12.5 53 5.8 ENE 13 19 7 10 1016.6 1016.5 0.0
19/03:00pm 22.2 19.9 11.9 52 5.8 ENE 15 22 8 12 1016.7 1016.6 0.0
19/02:30pm 22.7 20.0 11.7 49 6.2 ENE 17 30 9 16 1016.8 1016.7 0.0
19/02:00pm 22.8 20.3 11.2 48 6.5 ENE 15 24 8 13 1016.8 1016.7 0.0
19/01:30pm 23.4 21.5 11.8 48 6.6 NNE 13 24 7 13 1017.2 1017.1 0.0
19/01:00pm 23.3 20.3 10.7 45 7.0 E 17 28 9 15 1017.5 1017.4 0.0
19/12:30pm 23.8 21.0 10.1 42 7.5 ENE 15 26 8 14 1018.2 1018.1 0.0
19/12:00pm 24.2 22.1 8.2 36 8.5 ENE 9 19 5 10 1018.8 1018.7 0.0
19/11:30am 24.0 22.2 5.4 30 9.4 WNW 4 9 2 5 1019.4 1019.3 0.0
19/11:00am 24.0 21.3 5.8 31 9.3 NNW 9 13 5 7 1020.0 1019.9 0.0
19/10:30am 23.7 21.5 6.0 32 9.0 WNW 7 17 4 9 1020.4 1020.3 0.0
19/10:00am 22.8 20.8 7.0 36 8.1 WNW 7 15 4 8 1020.8 1020.7 0.0
19/09:30am 22.0 19.4 6.3 36 8.0 N 9 17 5 9 1021.1 1021.0 0.0
19/09:00am 22.0 20.3 8.5 42 7.1 NNW 7 17 4 9 1021.2 1021.1 0.0
19/08:30am 21.3 20.0 9.9 48 6.2 NNE 7 13 4 7 1021.3 1021.2 0.0
19/08:00am 18.8 18.9 10.1 57 4.6 CALM 0 0 0 0 1021.2 1021.1 0.0
19/07:30am 15.6 15.4 9.1 65 3.3 CALM 0 0 0 0 1021.1 1021.0 0.0
19/07:00am 12.7 12.6 9.3 80 1.7 CALM 0 0 0 0 1020.9 1020.8 0.0
19/06:30am 10.6 10.1 7.8 83 1.4 CALM 0 0 0 0 1020.6 1020.5 0.0
19/06:00am 9.4 8.9 7.7 89 0.8 E 0 0 0 0 1020.4 1020.3 0.0
19/05:30am 8.8 8.0 6.6 86 1.0 CALM 0 0 0 0 1020.1 1020.0 0.0
19/05:00am 9.1 8.3 6.5 84 1.2 CALM 0 0 0 0 1019.8 1019.7 0.0
19/04:30am 8.9 8.0 6.2 83 1.2 W 0 0 0 0 1019.5 1019.4 0.0
19/04:00am 9.1 8.2 6.2 82 1.3 CALM 0 0 0 0 1019.6 1019.5 0.0
19/03:30am 9.1 8.3 6.5 84 1.2 CALM 0 0 0 0 1019.4 1019.3 0.0
19/03:00am 9.9 9.3 7.2 83 1.3 CALM 0 0 0 0 1019.1 1019.0 0.0
19/02:30am 10.1 9.3 6.6 79 1.6 CALM 0 0 0 0 1019.1 1019.0 0.0
19/02:00am 9.7 9.0 6.8 82 1.4 W 0 0 0 0 1019.3 1019.2 0.0
19/01:30am 10.3 9.6 6.8 79 1.7 CALM 0 0 0 0 1019.4 1019.3 0.0
19/01:00am 10.2 9.6 7.3 82 1.4 CALM 0 0 0 0 1019.6 1019.5 0.0
19/12:30am 10.2 9.5 7.1 81 1.5 CALM 0 0 0 0 1019.7 1019.6 0.0
19/12:00am 10.3 9.5 6.6 78 1.7 SE 0 0 0 0 1020.0 1019.9 0.0
 
Date/Time
EST
Tmp

°C
App
Tmp
°C
Dew
Point
°C
Rel
Hum
%
Delta-T

°C
Wind Press
QNH
hPa
Press
MSL
hPa
Rain
since
9 am
mm
Dir
 
Spd
km/h
Gust
km/h
Spd
kts
Gust
kts
18/11:30pm 11.1 10.4 7.0 76 2.0 CALM 0 0 0 0 1020.1 1020.0 0.0
18/11:00pm 11.4 10.7 7.1 75 2.1 CALM 0 0 0 0 1020.2 1020.1 0.0
18/10:30pm 11.5 10.9 7.4 76 2.0 CALM 0 0 0 0 1020.2 1020.1 0.0
18/10:00pm 12.9 12.2 7.1 68 2.8 CALM 0 0 0 0 1020.2 1020.1 0.0
18/09:30pm 12.7 12.1 7.2 69 2.7 CALM 0 0 0 0 1020.0 1019.9 0.0
18/09:00pm 12.8 12.2 7.3 69 2.7 CALM 0 0 0 0 1019.9 1019.8 0.0
18/08:30pm 13.1 12.4 7.1 67 2.9 CALM 0 0 0 0 1019.8 1019.7 0.0
18/08:00pm 14.2 13.5 6.8 61 3.6 CALM 0 0 0 0 1019.5 1019.4 0.0
18/07:30pm 14.3 13.5 6.6 60 3.7 CALM 0 0 0 0 1019.2 1019.1 0.0
18/07:00pm 15.2 14.4 6.5 56 4.2 CALM 0 4 0 2 1018.6 1018.5 0.0
18/06:30pm 17.1 15.7 5.4 46 5.6 W 2 4 1 2 1018.3 1018.2 0.0
18/06:00pm 18.8 17.6 4.6 39 6.8 CALM 0 2 0 1 1017.9 1017.8 0.0
18/05:30pm 20.0 17.4 4.1 35 7.6 NNE 7 11 4 6 1017.4 1017.3 0.0
18/05:00pm 20.9 18.1 3.2 31 8.4 ENE 7 9 4 5 1016.9 1016.8 0.0
18/04:30pm 21.5 18.2 2.7 29 8.9 ENE 9 15 5 8 1016.5 1016.4 0.0
18/04:00pm 21.9 18.7 3.1 29 9.0 NE 9 17 5 9 1016.1 1016.0 0.0
18/03:30pm 22.6 18.6 2.7 27 9.5 NE 13 19 7 10 1015.8 1015.7 0.0
18/03:00pm 23.2 19.7 3.7 28 9.5 E 11 19 6 10 1015.8 1015.7 0.0
18/02:30pm 24.0 20.8 3.3 26 10.1 E 9 17 5 9 1015.6 1015.5 0.0
18/02:00pm 26.1 22.6 -1.7 16 12.5 NW 7 15 4 8 1015.8 1015.7 0.0
18/01:30pm 25.9 21.5 -2.7 15 12.6 WSW 11 22 6 12 1016.3 1016.2 0.0
18/01:00pm 25.2 22.0 -0.8 18 11.8 N 6 11 3 6 1016.7 1016.6 0.0
18/12:30pm 25.0 22.0 0.5 20 11.4 W 6 17 3 9 1017.1 1017.0 0.0
18/12:00pm 24.3 20.9 -0.8 19 11.3 SW 7 22 4 12 1017.7 1017.6 0.0
18/11:30am 23.9 19.7 -1.1 19 11.2 W 11 30 6 16 1018.2 1018.1 0.0
18/11:00am 23.6 20.2 -0.6 20 10.9 W 7 19 4 10 1018.8 1018.7 0.0
18/10:30am 23.2 19.4 -1.0 20 10.8 SSW 9 20 5 11 1019.1 1019.0 0.0
18/10:00am 23.3 20.0 0.4 22 10.5 S 7 19 4 10 1019.4 1019.3 0.0
18/09:30am 22.4 18.7 -0.3 22 10.2 WSW 9 28 5 15 1019.7 1019.6 0.0
18/09:00am 22.5 18.9 0.4 23 10.0 SE 9 19 5 10 1019.8 1019.7 0.0
18/08:30am 22.3 19.5 1.9 26 9.5 SSE 6 15 3 8 1019.7 1019.6 0.0
18/08:00am 21.4 19.4 4.5 33 8.2 ESE 4 9 2 5 1019.4 1019.3 0.0
18/07:30am 19.9 17.2 2.7 32 8.0 SW 6 7 3 4 1019.1 1019.0 0.0
18/07:00am 17.9 15.8 4.1 40 6.5 SW 4 6 2 3 1018.9 1018.8 0.0
18/06:30am 15.5 13.7 3.6 45 5.5 WSW 2 6 1 3 1018.5 1018.4 0.0
18/06:00am 15.3 13.6 3.8 46 5.3 SSW 2 4 1 2 1018.2 1018.1 0.0
18/05:30am 14.9 13.6 4.0 48 5.0 CALM 0 2 0 1 1017.9 1017.8 0.0
18/05:00am 17.4 14.9 1.8 35 7.0 WSW 4 7 2 4 1017.6 1017.5 0.0
18/04:30am 17.7 15.3 2.1 35 7.1 W 4 11 2 6 1017.1 1017.0 0.0
18/04:00am 17.9 14.9 1.8 34 7.2 WSW 7 11 4 6 1016.8 1016.7 0.0
18/03:30am 16.4 13.5 2.8 40 6.2 WSW 7 9 4 5 1016.4 1016.3 0.0
18/03:00am 16.6 13.8 3.0 40 6.2 WSW 7 9 4 5 1016.3 1016.2 0.0
18/02:30am 16.8 14.1 2.8 39 6.4 WSW 6 7 3 4 1016.0 1015.9 0.0
18/02:00am 13.7 12.9 6.6 62 3.4 CALM 0 0 0 0 1015.9 1015.8 0.0
18/01:30am 14.7 13.5 6.5 58 4.0 SW 2 6 1 3 1015.7 1015.6 0.0
18/01:00am 15.4 14.4 5.6 52 4.7 CALM 0 2 0 1 1015.6 1015.5 0.0
18/12:30am 17.3 14.9 2.1 36 6.9 WSW 4 6 2 3 1015.4 1015.3 0.0
18/12:00am 19.2 17.2 2.1 32 7.8 SW 2 7 1 4 1015.3 1015.2 0.0
 
Date/Time
EST
Tmp

°C
App
Tmp
°C
Dew
Point
°C
Rel
Hum
%
Delta-T

°C
Wind Press
QNH
hPa
Press
MSL
hPa
Rain
since
9 am
mm
Dir
 
Spd
km/h
Gust
km/h
Spd
kts
Gust
kts
17/11:30pm 15.6 15.4 9.1 65 3.3 CALM 0 2 0 1 1015.2 1015.1 0.0
17/11:00pm 15.8 15.5 8.8 63 3.6 CALM 0 0 0 0 1015.1 1015.0 0.0
17/10:30pm 15.3 15.1 9.2 67 3.1 CALM 0 0 0 0 1015.0 1014.9 0.0
17/10:00pm 16.1 16.0 9.3 64 3.5 CALM 0 2 0 1 1014.8 1014.7 0.0
17/09:30pm 14.4 14.5 10.0 75 2.3 CALM 0 6 0 3 1014.8 1014.7 0.0
17/09:00pm 15.4 16.1 12.3 82 1.7 CALM 0 0 0 0 1014.6 1014.5 0.0
17/08:30pm 15.6 16.6 13.1 85 1.4 CALM 0 0 0 0 1014.3 1014.2 0.0
17/08:00pm 17.6 19.2 15.0 85 1.5 CALM 0 2 0 1 1014.1 1014.0 0.0
17/07:30pm 18.1 19.4 15.2 83 1.7 W 2 6 1 3 1013.6 1013.5 0.0
17/07:00pm 18.2 19.6 14.5 79 2.1 CALM 0 0 0 0 1013.2 1013.1 0.0
17/06:30pm 19.3 20.9 14.8 75 2.6 CALM 0 4 0 2 1012.9 1012.8 0.0
17/06:00pm 21.0 22.4 15.3 70 3.4 S 2 4 1 2 1012.4 1012.3 0.0
17/05:30pm 22.3 23.7 15.4 65 4.1 ESE 2 4 1 2 1012.1 1012.0 0.0
17/05:00pm 23.4 23.8 15.2 60 4.9 E 7 9 4 5 1011.8 1011.7 0.0
17/04:30pm 24.0 23.7 14.4 55 5.7 ENE 9 17 5 9 1011.7 1011.6 0.0
17/04:00pm 24.5 24.0 13.7 51 6.3 ENE 9 15 5 8 1011.5 1011.4 0.0
17/03:30pm 25.4 23.5 10.4 39 8.4 E 11 15 6 8 1011.4 1011.3 0.0
17/03:00pm 25.8 23.5 10.4 38 8.6 E 13 19 7 10 1011.3 1011.2 0.0
17/02:30pm 25.9 23.5 10.1 37 8.8 ENE 13 22 7 12 1011.5 1011.4 0.0
17/02:00pm 26.4 23.9 10.9 38 8.8 ENE 15 20 8 11 1011.7 1011.6 0.0
17/01:30pm 26.1 24.5 11.5 40 8.3 E 11 26 6 14 1012.1 1012.0 0.0
17/01:00pm 27.9 25.7 6.1 25 11.4 NW 7 13 4 7 1012.5 1012.4 0.0
17/12:30pm 28.3 25.8 6.4 25 11.6 W 9 19 5 10 1012.9 1012.8 0.0
17/12:00pm 27.9 25.3 4.2 22 12.0 WNW 7 19 4 10 1013.3 1013.2 0.0
17/11:30am 27.7 25.1 5.9 25 11.4 NW 9 17 5 9 1013.8 1013.7 0.0
17/11:00am 26.2 24.9 9.1 34 9.4 ENE 6 11 3 6 1014.4 1014.3 0.0
17/10:30am 25.5 24.6 10.5 39 8.4 ENE 6 11 3 6 1015.0 1014.9 0.0
17/10:00am 24.2 23.7 12.8 49 6.6 ENE 7 13 4 7 1015.2 1015.1 0.0
17/09:30am 23.6 23.4 13.5 53 5.9 ENE 7 13 4 7 1015.5 1015.4 0.0
17/09:00am 22.9 22.4 12.8 53 5.8 NE 7 11 4 6 1016.0 1015.9 0.2
17/08:30am 22.2 22.0 13.0 56 5.3 NE 6 11 3 6 1015.7 1015.6 0.2
17/08:00am 21.4 21.4 12.3 56 5.1 ENE 4 7 2 4 1015.7 1015.6 0.2
17/07:30am 20.0 20.4 12.5 62 4.2 NNE 2 4 1 2 1015.5 1015.4 0.2
17/07:00am 18.3 19.2 14.0 76 2.5 NE 2 6 1 3 1015.3 1015.2 0.2
17/06:30am 16.3 16.7 13.8 85 1.4 N 4 6 2 3 1015.0 1014.9 0.2
17/06:00am 14.9 15.9 13.3 90 0.9 CALM 0 0 0 0 1014.9 1014.8 0.2
17/05:30am 15.4 15.9 12.7 84 1.5 WSW 2 6 1 3 1014.8 1014.7 0.2
17/05:00am 16.6 17.4 13.7 83 1.6 WNW 2 6 1 3 1014.5 1014.4 0.2
17/04:30am 17.2 17.2 14.1 82 1.8 NNE 7 11 4 6 1014.3 1014.2 0.2
17/04:00am 17.1 17.2 14.0 82 1.8 NE 6 9 3 5 1014.0 1013.9 0.2
17/03:30am 17.6 17.8 14.1 80 2.0 N 6 11 3 6 1013.8 1013.7 0.2
17/03:00am 17.8 17.9 14.5 81 1.9 N 7 11 4 6 1013.8 1013.7 0.2
17/02:30am 17.9 18.7 14.8 82 1.8 N 4 17 2 9 1013.8 1013.7 0.2
17/02:00am 18.0 18.1 13.9 77 2.3 N 6 11 3 6 1014.1 1014.0 0.2
17/01:30am 18.6 18.5 13.9 74 2.7 N 7 15 4 8 1014.1 1014.0 0.2
17/01:00am 18.3 18.0 13.2 72 2.9 N 7 15 4 8 1014.2 1014.1 0.2
17/12:30am 18.5 17.5 12.3 67 3.5 N 9 15 5 8 1014.4 1014.3 0.2
17/12:00am 18.8 17.9 11.4 62 4.1 N 7 15 4 8 1014.5 1014.4 0.2

Latest Capital City Observations: Canberra | Sydney | Melbourne | Brisbane | Adelaide | Perth | Hobart | Darwin

Other Formats:

Comma delimited format used in spreadsheet applications
http://www.bom.gov.au/fwo/IDQ60901/IDQ60901.95572.axf

JavaScript Object Notation format (JSON) in row-major order
http://www.bom.gov.au/fwo/IDQ60901/IDQ60901.95572.json